createdAt,value
2023-05-25T00:00:53.445Z,19.17
2023-05-25T00:03:27.774Z,17.60
2023-05-25T00:05:54.541Z,19.75
2023-05-25T00:08:21.159Z,26.83
2023-05-25T00:10:47.616Z,15.23
2023-05-25T00:13:14.059Z,17.50
2023-05-25T00:15:40.883Z,15.80
2023-05-25T00:18:07.438Z,20.83
2023-05-25T00:20:34.630Z,16.52
2023-05-25T00:23:02.357Z,25.75
2023-05-25T00:25:29.676Z,13.98
2023-05-25T00:27:56.154Z,15.73
2023-05-25T00:30:22.692Z,19.60
2023-05-25T00:32:49.159Z,19.05
2023-05-25T00:35:15.724Z,16.95
2023-05-25T00:37:42.225Z,20.85
2023-05-25T00:40:14.385Z,15.52
2023-05-25T00:42:41.149Z,18.63
2023-05-25T00:45:08.010Z,24.45
2023-05-25T00:47:34.552Z,17.60
2023-05-25T00:50:02.023Z,18.58
2023-05-25T00:52:28.816Z,23.20
2023-05-25T00:54:59.650Z,15.95
2023-05-25T00:57:29.888Z,20.08
2023-05-25T00:59:58.079Z,15.50
2023-05-25T01:02:29.119Z,15.13
2023-05-25T01:05:00.926Z,16.15
2023-05-25T01:07:30.993Z,14.00
2023-05-25T01:09:59.959Z,18.77
2023-05-25T01:12:32.057Z,15.77
2023-05-25T01:15:00.770Z,21.88
2023-05-25T01:17:28.996Z,24.38
2023-05-25T01:20:09.505Z,15.30
2023-05-25T01:22:47.821Z,15.15
2023-05-25T01:25:23.071Z,12.35
2023-05-25T01:27:57.220Z,14.80
2023-05-25T01:30:26.355Z,13.70
2023-05-25T01:32:55.020Z,15.75
2023-05-25T01:35:22.898Z,19.40
2023-05-25T01:37:51.746Z,15.65
2023-05-25T01:40:18.203Z,21.63
2023-05-25T01:42:44.663Z,19.13
2023-05-25T01:45:13.096Z,12.18
2023-05-25T01:47:42.507Z,19.75
2023-05-25T01:50:31.363Z,18.60
2023-05-25T01:53:04.118Z,14.80
2023-05-25T01:55:39.287Z,15.10
2023-05-25T01:58:08.064Z,17.92
2023-05-25T02:00:35.771Z,11.25
2023-05-25T02:03:02.598Z,15.48
2023-05-25T02:05:29.140Z,12.63
2023-05-25T02:07:55.756Z,15.40
2023-05-25T02:10:22.192Z,19.33
2023-05-25T02:12:48.658Z,14.18
2023-05-25T02:15:16.081Z,20.52
2023-05-25T02:17:43.275Z,18.85
2023-05-25T02:20:11.183Z,22.33
2023-05-25T02:22:38.177Z,21.63
2023-05-25T02:25:05.706Z,14.98
2023-05-25T02:27:32.180Z,18.45
2023-05-25T02:29:58.681Z,15.77
2023-05-25T02:32:25.143Z,11.05
2023-05-25T02:34:51.693Z,18.30
2023-05-25T02:37:18.137Z,11.45
2023-05-25T02:39:44.605Z,12.20
2023-05-25T02:42:11.291Z,18.63
2023-05-25T02:44:37.762Z,14.32
2023-05-25T02:47:04.468Z,14.90
2023-05-25T02:49:30.994Z,12.00
2023-05-25T02:51:57.499Z,14.48
2023-05-25T02:54:23.922Z,14.95
2023-05-25T02:56:50.511Z,18.27
2023-05-25T02:59:16.979Z,17.58
2023-05-25T03:01:43.404Z,15.80
2023-05-25T03:04:09.913Z,14.73
2023-05-25T03:06:36.663Z,10.77
2023-05-25T03:09:05.107Z,13.00
2023-05-25T03:11:31.552Z,18.80
2023-05-25T03:13:58.007Z,15.95
2023-05-25T03:16:24.508Z,19.60
2023-05-25T03:18:50.957Z,19.10
2023-05-25T03:21:17.386Z,20.02
2023-05-25T03:23:44.080Z,13.45
2023-05-25T03:26:10.958Z,15.75
2023-05-25T03:28:37.378Z,13.00
2023-05-25T03:31:04.600Z,19.17
2023-05-25T03:33:31.125Z,13.15
2023-05-25T03:35:57.605Z,10.80
2023-05-25T03:38:24.062Z,13.32
2023-05-25T03:40:50.712Z,15.35
2023-05-25T03:43:17.372Z,18.38
2023-05-25T03:45:44.008Z,22.35
2023-05-25T03:48:10.738Z,15.07
2023-05-25T03:50:37.271Z,11.70
2023-05-25T03:53:03.731Z,14.45
2023-05-25T03:55:30.791Z,16.83
2023-05-25T03:57:57.285Z,18.23
2023-05-25T04:00:24.092Z,22.60
2023-05-25T04:02:50.946Z,14.98
2023-05-25T04:05:17.475Z,18.30
2023-05-25T04:07:44.361Z,17.17
2023-05-25T04:10:11.370Z,18.00
2023-05-25T04:12:38.512Z,15.90
2023-05-25T04:15:08.966Z,13.43
2023-05-25T04:17:39.064Z,19.42
2023-05-25T04:22:33.570Z,18.70
2023-05-25T04:25:00.051Z,24.48
2023-05-25T04:27:26.747Z,15.18
2023-05-25T04:29:54.183Z,19.98
2023-05-25T04:32:21.521Z,13.55
2023-05-25T04:34:48.364Z,17.90
2023-05-25T04:37:14.853Z,19.00
2023-05-25T04:39:41.303Z,17.63
2023-05-25T04:42:07.772Z,21.63
2023-05-25T04:44:34.314Z,21.08
2023-05-25T04:47:01.341Z,22.55
2023-05-25T04:49:28.174Z,16.42
2023-05-25T04:51:54.702Z,19.75
2023-05-25T04:54:21.953Z,22.10
2023-05-25T04:56:48.414Z,20.17
2023-05-25T04:59:14.859Z,22.08
2023-05-25T05:01:41.490Z,30.75
2023-05-25T05:04:08.408Z,18.13
2023-05-25T05:06:36.608Z,17.58
2023-05-25T05:09:03.509Z,13.77
2023-05-25T05:11:30.342Z,19.05
2023-05-25T05:13:57.119Z,20.58
2023-05-25T05:16:23.681Z,23.15
2023-05-25T05:18:50.574Z,27.23
2023-05-25T05:21:17.156Z,37.45
2023-05-25T05:23:43.992Z,22.40
2023-05-25T05:26:11.591Z,26.98
2023-05-25T05:28:38.216Z,25.10
2023-05-25T05:31:04.725Z,23.65
2023-05-25T05:33:31.418Z,22.35
2023-05-25T05:35:57.983Z,25.05
2023-05-25T05:38:24.508Z,33.58
2023-05-25T05:40:50.978Z,23.55
2023-05-25T05:43:17.645Z,26.45
2023-05-25T05:45:44.311Z,33.80
2023-05-25T05:48:11.071Z,26.20
2023-05-25T05:50:40.968Z,36.33
2023-05-25T05:53:09.690Z,40.83
2023-05-25T05:55:36.166Z,48.30
2023-05-25T05:58:02.641Z,34.00
2023-05-25T06:00:29.304Z,30.88
2023-05-25T06:02:56.067Z,32.63
2023-05-25T06:05:23.126Z,35.92
2023-05-25T06:07:49.586Z,33.75
2023-05-25T06:10:16.230Z,38.67
2023-05-25T06:12:42.778Z,33.70
2023-05-25T06:15:09.736Z,25.42
2023-05-25T06:17:37.025Z,34.78
2023-05-25T06:20:03.774Z,34.70
2023-05-25T06:22:30.302Z,38.00
2023-05-25T06:24:56.797Z,30.77
2023-05-25T06:27:23.550Z,29.75
2023-05-25T06:29:50.018Z,27.05
2023-05-25T06:32:16.667Z,42.05
2023-05-25T06:34:43.215Z,34.88
2023-05-25T06:37:09.718Z,25.33
2023-05-25T06:39:36.223Z,33.05
2023-05-25T06:42:02.669Z,29.17
2023-05-25T06:44:29.765Z,28.35
2023-05-25T06:46:56.214Z,32.65
2023-05-25T06:49:22.700Z,34.47
2023-05-25T06:51:51.107Z,51.42
2023-05-25T06:54:17.661Z,25.88
2023-05-25T06:56:44.139Z,34.08
2023-05-25T06:59:10.607Z,31.13
2023-05-25T07:01:37.494Z,37.33
2023-05-25T07:04:04.054Z,29.55
2023-05-25T07:06:30.479Z,39.17
2023-05-25T07:08:56.988Z,39.78
2023-05-25T07:11:23.481Z,32.58
2023-05-25T07:13:49.978Z,31.17
2023-05-25T07:16:16.874Z,29.52
2023-05-25T07:18:43.378Z,33.22
2023-05-25T07:21:11.132Z,28.85
2023-05-25T07:23:38.348Z,34.63
2023-05-25T07:26:06.012Z,37.42
2023-05-25T07:28:32.816Z,28.65
2023-05-25T07:30:59.321Z,37.38
2023-05-25T07:33:25.958Z,30.10
2023-05-25T07:35:52.459Z,30.73
2023-05-25T07:38:18.921Z,44.42
2023-05-25T07:40:47.919Z,25.35
2023-05-25T07:43:14.561Z,30.52
2023-05-25T07:45:40.978Z,27.88
2023-05-25T07:48:07.970Z,25.95
2023-05-25T07:50:34.501Z,33.55
2023-05-25T07:53:01.139Z,39.20
2023-05-25T07:55:27.555Z,31.05
2023-05-25T07:57:54.312Z,30.98
2023-05-25T08:00:21.185Z,29.15
2023-05-25T08:02:47.820Z,37.35
2023-05-25T08:05:14.580Z,25.70
2023-05-25T08:07:42.798Z,28.98
2023-05-25T08:10:09.900Z,28.55
2023-05-25T08:12:47.984Z,34.95
2023-05-25T08:15:16.577Z,28.35
2023-05-25T08:17:43.277Z,36.47
2023-05-25T08:20:10.550Z,35.15
2023-05-25T08:22:37.313Z,27.52
2023-05-25T08:25:05.195Z,33.55
2023-05-25T08:27:34.416Z,35.58
2023-05-25T08:30:02.631Z,30.08
2023-05-25T08:32:29.101Z,27.50
2023-05-25T08:34:55.722Z,32.15
2023-05-25T08:37:22.580Z,25.42
2023-05-25T08:39:49.012Z,24.08
2023-05-25T08:42:15.621Z,37.63
2023-05-25T08:44:42.347Z,32.60
2023-05-25T08:47:08.818Z,32.72
2023-05-25T08:49:38.461Z,25.52
2023-05-25T08:52:05.958Z,25.42
2023-05-25T08:54:36.074Z,26.25
2023-05-25T08:59:42.725Z,32.63
2023-05-25T09:02:31.284Z,27.80
2023-05-25T09:05:01.263Z,25.55
2023-05-25T09:07:28.844Z,21.52
2023-05-25T09:09:55.471Z,21.25
2023-05-25T09:12:24.967Z,30.45
2023-05-25T09:14:53.610Z,30.67
2023-05-25T09:17:21.154Z,25.45
2023-05-25T09:19:47.836Z,27.45
2023-05-25T09:22:16.405Z,23.90
2023-05-25T09:24:44.546Z,25.65
2023-05-25T09:27:12.910Z,30.45
2023-05-25T09:29:39.387Z,28.02
2023-05-25T09:32:09.169Z,23.73
2023-05-25T09:34:35.891Z,26.33
2023-05-25T09:37:19.005Z,26.40
2023-05-25T09:39:46.101Z,20.77
2023-05-25T09:42:12.628Z,20.67
2023-05-25T09:44:40.555Z,28.30
2023-05-25T09:47:07.230Z,28.83
2023-05-25T09:49:33.757Z,21.50
2023-05-25T09:52:00.678Z,29.17
2023-05-25T09:54:27.482Z,22.42
2023-05-25T09:56:54.343Z,20.73
2023-05-25T09:59:23.270Z,18.63
2023-05-25T10:01:55.891Z,25.17
2023-05-25T10:04:22.507Z,27.55
2023-05-25T10:06:52.114Z,16.70
2023-05-25T10:09:19.802Z,28.40
2023-05-25T10:11:48.070Z,30.83
2023-05-25T10:14:20.015Z,22.83
2023-05-25T10:16:50.429Z,19.08
2023-05-25T10:19:21.910Z,30.35
2023-05-25T10:21:58.256Z,28.65
2023-05-25T10:24:34.225Z,22.88
2023-05-25T10:27:14.548Z,27.70
2023-05-25T10:32:19.079Z,23.08
2023-05-25T10:34:46.697Z,23.92
2023-05-25T10:37:14.748Z,25.90
2023-05-25T10:39:44.033Z,22.88
2023-05-25T10:42:11.362Z,27.55
2023-05-25T10:44:38.670Z,23.13
2023-05-25T10:47:06.325Z,31.00
2023-05-25T10:49:34.064Z,24.02
2023-05-25T10:52:02.392Z,22.90
2023-05-25T10:54:36.124Z,22.60
2023-05-25T10:57:14.169Z,23.35
2023-05-25T10:59:41.527Z,20.95
2023-05-25T11:02:09.264Z,26.58
2023-05-25T11:04:37.644Z,23.88
2023-05-25T11:07:10.684Z,26.15
2023-05-25T11:09:41.371Z,20.65
2023-05-25T11:12:08.526Z,21.25
2023-05-25T11:14:42.140Z,19.15
2023-05-25T11:17:18.382Z,15.70
2023-05-25T11:19:56.197Z,18.30
2023-05-25T11:22:35.383Z,18.40
2023-05-25T11:25:23.783Z,23.55
2023-05-25T11:27:54.155Z,24.17
2023-05-25T11:30:20.640Z,21.55
2023-05-25T11:32:50.733Z,20.00
2023-05-25T11:35:17.455Z,22.65
2023-05-25T11:37:50.684Z,22.08
2023-05-25T11:40:17.368Z,25.27
2023-05-25T11:42:48.243Z,22.90
2023-05-25T11:45:14.927Z,22.35
2023-05-25T11:47:41.561Z,23.52
2023-05-25T11:50:14.940Z,34.13
2023-05-25T11:52:41.558Z,18.88
2023-05-25T11:55:13.259Z,18.73
2023-05-25T11:57:40.602Z,22.30
2023-05-25T12:00:11.219Z,24.35
2023-05-25T12:02:39.192Z,24.25
2023-05-25T12:05:07.867Z,18.02
2023-05-25T12:07:43.994Z,29.77
2023-05-25T12:10:12.318Z,19.38
2023-05-25T12:12:41.794Z,21.65
2023-05-25T12:15:13.907Z,17.08
2023-05-25T12:17:42.385Z,19.08
2023-05-25T12:20:11.005Z,18.77
2023-05-25T12:22:39.552Z,23.67
2023-05-25T12:25:10.599Z,11.90
2023-05-25T12:27:37.413Z,15.00
2023-05-25T12:30:05.172Z,17.38
2023-05-25T12:32:31.922Z,26.13
2023-05-25T12:35:05.607Z,18.55
2023-05-25T12:37:32.788Z,22.95
2023-05-25T12:40:00.207Z,19.92
2023-05-25T12:42:27.434Z,18.48
2023-05-25T12:44:58.050Z,20.42
2023-05-25T12:47:27.851Z,20.33
2023-05-25T12:50:13.933Z,19.52
2023-05-25T12:52:45.059Z,16.48
2023-05-25T12:55:28.082Z,24.02
2023-05-25T12:57:58.023Z,14.50
2023-05-25T13:00:32.139Z,20.67
2023-05-25T13:02:59.368Z,22.38
2023-05-25T13:05:28.690Z,19.48
2023-05-25T13:07:57.295Z,18.75
2023-05-25T13:10:24.895Z,15.48
2023-05-25T13:12:53.511Z,17.27
2023-05-25T13:15:21.580Z,19.27
2023-05-25T13:17:50.367Z,22.00
2023-05-25T13:20:19.092Z,20.33
2023-05-25T13:22:47.120Z,16.33
2023-05-25T13:25:14.772Z,18.25
2023-05-25T13:27:48.400Z,17.60
2023-05-25T13:30:15.327Z,20.17
2023-05-25T13:32:43.492Z,25.23
2023-05-25T13:35:18.199Z,14.80
2023-05-25T13:37:47.840Z,13.35
2023-05-25T13:40:14.626Z,20.45
2023-05-25T13:42:41.267Z,22.42
2023-05-25T13:45:08.361Z,18.92
2023-05-25T13:47:34.969Z,20.95
2023-05-25T13:50:01.552Z,19.48
2023-05-25T13:52:28.729Z,20.00
2023-05-25T13:54:55.220Z,15.15
2023-05-25T13:57:22.593Z,16.08
2023-05-25T13:59:49.281Z,15.43
2023-05-25T14:02:15.950Z,15.73
2023-05-25T14:04:42.484Z,18.25
2023-05-25T14:07:08.920Z,13.88
2023-05-25T14:09:35.557Z,24.60
2023-05-25T14:12:03.022Z,17.30
2023-05-25T14:14:31.960Z,17.20
2023-05-25T14:17:00.275Z,17.58
2023-05-25T14:19:26.983Z,15.25
2023-05-25T14:22:11.079Z,20.48
2023-05-25T14:24:39.443Z,14.60
2023-05-25T14:27:07.173Z,11.60
2023-05-25T14:29:33.908Z,18.52
2023-05-25T14:32:00.587Z,17.05
2023-05-25T14:34:27.865Z,18.10
2023-05-25T14:36:54.407Z,16.95
2023-05-25T14:39:20.841Z,24.98
2023-05-25T14:41:47.284Z,15.25
2023-05-25T14:44:13.956Z,15.68
2023-05-25T14:46:40.466Z,18.15
2023-05-25T14:49:06.906Z,16.63
2023-05-25T14:51:33.446Z,17.60
2023-05-25T14:54:03.380Z,22.38
2023-05-25T14:58:56.217Z,18.83
2023-05-25T15:01:25.178Z,20.60
2023-05-25T15:03:52.517Z,16.23
2023-05-25T15:06:19.144Z,14.95
2023-05-25T15:08:45.796Z,16.90
2023-05-25T15:11:12.244Z,19.55
2023-05-25T15:13:40.590Z,18.58
2023-05-25T15:16:07.116Z,17.80
2023-05-25T15:18:33.611Z,15.63
2023-05-25T15:21:00.143Z,22.58
2023-05-25T15:23:26.612Z,17.40
2023-05-25T15:25:53.085Z,15.48
2023-05-25T15:28:19.577Z,11.30
2023-05-25T15:30:46.087Z,19.95
2023-05-25T15:33:13.802Z,22.27
2023-05-25T15:35:40.520Z,14.82
2023-05-25T15:38:07.025Z,14.77
2023-05-25T15:40:33.565Z,17.88
2023-05-25T15:43:00.058Z,15.55
2023-05-25T15:45:26.729Z,13.63
2023-05-25T15:47:53.240Z,16.15
2023-05-25T15:50:19.827Z,13.60
2023-05-25T15:52:46.806Z,21.55
2023-05-25T15:55:13.305Z,20.85
2023-05-25T15:57:39.736Z,19.27
2023-05-25T16:00:06.778Z,19.33
2023-05-25T16:02:33.396Z,19.60
2023-05-25T16:04:59.855Z,15.85
2023-05-25T16:07:26.495Z,21.50
2023-05-25T16:09:52.959Z,17.45
2023-05-25T16:12:19.591Z,18.02
2023-05-25T16:17:12.621Z,14.05
2023-05-25T16:19:39.047Z,13.85
2023-05-25T16:22:06.452Z,21.48
2023-05-25T16:24:32.888Z,15.95
2023-05-25T16:26:59.369Z,13.45
2023-05-25T16:29:25.848Z,18.95
2023-05-25T16:31:53.479Z,22.10
2023-05-25T16:34:20.079Z,17.42
2023-05-25T16:36:46.493Z,25.08
2023-05-25T16:39:13.156Z,20.85
2023-05-25T16:41:41.223Z,24.02
2023-05-25T16:44:08.391Z,16.45
2023-05-25T16:46:34.834Z,17.27
2023-05-25T16:49:01.487Z,17.70
2023-05-25T16:51:27.983Z,18.10
2023-05-25T16:53:54.456Z,19.50
2023-05-25T16:56:21.454Z,14.93
2023-05-25T16:58:48.779Z,18.40
2023-05-25T17:01:15.440Z,18.80
2023-05-25T17:03:42.078Z,24.25
2023-05-25T17:06:08.649Z,18.27
2023-05-25T17:08:36.342Z,20.17
2023-05-25T17:11:02.814Z,14.75
2023-05-25T17:13:29.225Z,16.75
2023-05-25T17:15:55.745Z,16.83
2023-05-25T17:18:22.338Z,20.50
2023-05-25T17:20:48.940Z,13.35
2023-05-25T17:23:18.265Z,16.15
2023-05-25T17:25:45.017Z,17.10
2023-05-25T17:28:11.766Z,16.75
2023-05-25T17:30:38.193Z,15.88
2023-05-25T17:33:04.842Z,21.55
2023-05-25T17:35:31.393Z,13.23
2023-05-25T17:37:57.812Z,13.32
2023-05-25T17:40:24.244Z,18.02
2023-05-25T17:42:50.668Z,16.88
2023-05-25T17:45:17.191Z,16.60
2023-05-25T17:47:43.659Z,19.58
2023-05-25T17:50:10.406Z,20.95
2023-05-25T17:52:36.848Z,23.77
2023-05-25T17:55:04.050Z,18.20
2023-05-25T17:57:30.524Z,20.25
2023-05-25T17:59:57.143Z,15.57
2023-05-25T18:02:26.311Z,17.90
2023-05-25T18:04:52.828Z,16.60
2023-05-25T18:07:20.877Z,14.45
2023-05-25T18:09:47.313Z,15.88
2023-05-25T18:12:13.761Z,16.73
2023-05-25T18:14:40.242Z,16.33
2023-05-25T18:17:06.736Z,16.70
2023-05-25T18:19:33.256Z,15.35
2023-05-25T18:21:59.711Z,14.23
2023-05-25T18:24:26.368Z,20.25
2023-05-25T18:26:52.806Z,22.23
2023-05-25T18:29:19.488Z,23.85
2023-05-25T18:31:48.528Z,17.58
2023-05-25T18:34:15.257Z,19.58
2023-05-25T18:36:41.733Z,19.92
2023-05-25T18:39:08.202Z,16.38
2023-05-25T18:41:34.682Z,14.85
2023-05-25T18:44:01.117Z,12.95
2023-05-25T18:46:28.583Z,16.58
2023-05-25T18:48:55.772Z,12.68
2023-05-25T18:51:25.503Z,23.48
2023-05-25T18:53:51.964Z,11.30
2023-05-25T18:56:18.417Z,17.52
2023-05-25T18:58:44.935Z,26.92
2023-05-25T19:01:11.355Z,18.08
2023-05-25T19:03:37.921Z,15.25
2023-05-25T19:06:04.745Z,16.17
2023-05-25T19:08:31.177Z,17.02
2023-05-25T19:10:57.602Z,21.92
2023-05-25T19:13:24.473Z,17.02
2023-05-25T19:15:51.001Z,19.15
2023-05-25T19:18:17.598Z,19.52
2023-05-25T19:20:44.128Z,14.65
2023-05-25T19:23:10.653Z,17.83
2023-05-25T19:25:37.086Z,17.90
2023-05-25T19:28:03.552Z,18.17
2023-05-25T19:30:29.965Z,21.05
2023-05-25T19:32:56.443Z,22.88
2023-05-25T19:35:22.918Z,14.02
2023-05-25T19:37:49.395Z,14.07
2023-05-25T19:40:15.877Z,19.77
2023-05-25T19:42:42.476Z,20.40
2023-05-25T19:45:09.190Z,13.80
2023-05-25T19:47:35.891Z,22.02
2023-05-25T19:50:02.817Z,21.95
2023-05-25T19:52:29.265Z,20.50
2023-05-25T19:54:55.790Z,24.27
2023-05-25T19:57:22.302Z,22.63
2023-05-25T19:59:50.428Z,14.32
2023-05-25T20:02:17.084Z,16.73
2023-05-25T20:04:43.568Z,14.98
2023-05-25T20:07:10.230Z,17.88
2023-05-25T20:09:38.462Z,24.45
2023-05-25T20:12:06.246Z,22.35
2023-05-25T20:14:33.677Z,22.83
2023-05-25T20:17:00.355Z,14.18
2023-05-25T20:19:26.929Z,18.33
2023-05-25T20:21:53.436Z,21.23
2023-05-25T20:24:19.929Z,19.77
2023-05-25T20:26:46.373Z,22.63
2023-05-25T20:29:12.907Z,22.50
2023-05-25T20:31:40.250Z,15.10
2023-05-25T20:34:07.218Z,24.85
2023-05-25T20:36:33.624Z,22.60
2023-05-25T20:39:00.347Z,19.38
2023-05-25T20:41:27.045Z,20.20
2023-05-25T20:43:53.483Z,16.58
2023-05-25T20:46:20.024Z,19.88
2023-05-25T20:48:46.523Z,16.45
2023-05-25T20:51:14.195Z,25.77
2023-05-25T20:53:40.863Z,26.00
2023-05-25T20:56:07.356Z,22.35
2023-05-25T20:58:33.826Z,20.90
2023-05-25T21:01:00.510Z,20.00
2023-05-25T21:03:27.034Z,19.80
2023-05-25T21:05:53.591Z,18.80
2023-05-25T21:08:20.068Z,24.05
2023-05-25T21:10:46.486Z,16.35
2023-05-25T21:13:12.916Z,33.50
2023-05-25T21:15:39.407Z,18.90
2023-05-25T21:18:07.023Z,33.72
2023-05-25T21:20:33.732Z,22.73
2023-05-25T21:23:02.381Z,26.23
2023-05-25T21:25:32.009Z,32.33
2023-05-25T21:27:58.454Z,23.60
2023-05-25T21:30:24.953Z,26.30
2023-05-25T21:32:51.582Z,24.60
2023-05-25T21:35:18.255Z,25.70
2023-05-25T21:37:45.531Z,30.20
2023-05-25T21:40:12.590Z,22.48
2023-05-25T21:42:39.000Z,23.45
2023-05-25T21:45:05.828Z,29.88
2023-05-25T21:47:32.307Z,27.05
2023-05-25T21:49:58.721Z,21.10
2023-05-25T21:52:25.260Z,27.48
2023-05-25T21:54:51.696Z,24.27
2023-05-25T21:57:18.152Z,21.17
2023-05-25T21:59:44.576Z,22.17
2023-05-25T22:02:11.230Z,28.77
2023-05-25T22:04:37.724Z,21.20
2023-05-25T22:07:04.398Z,24.42
2023-05-25T22:09:31.817Z,22.52
2023-05-25T22:11:58.233Z,25.67
2023-05-25T22:14:24.646Z,20.77
2023-05-25T22:16:51.187Z,19.50
2023-05-25T22:19:17.684Z,23.33
2023-05-25T22:21:44.161Z,34.67
2023-05-25T22:24:10.716Z,17.45
2023-05-25T22:26:37.214Z,23.02
2023-05-25T22:29:03.699Z,28.85
2023-05-25T22:31:30.220Z,22.95
2023-05-25T22:33:56.702Z,28.50
2023-05-25T22:36:23.341Z,23.30
2023-05-25T22:38:49.763Z,26.98
2023-05-25T22:41:31.676Z,22.90
2023-05-25T22:43:58.227Z,25.83
2023-05-25T22:46:24.687Z,25.33
2023-05-25T22:48:51.646Z,24.48
2023-05-25T22:51:18.119Z,33.22
2023-05-25T22:53:44.564Z,27.85
2023-05-25T22:56:11.467Z,28.55
2023-05-25T22:58:38.050Z,23.00
2023-05-25T23:01:04.510Z,21.45
2023-05-25T23:03:31.017Z,25.25
2023-05-25T23:05:57.558Z,24.25
2023-05-25T23:08:24.042Z,28.05
2023-05-25T23:10:50.645Z,24.77
2023-05-25T23:13:18.668Z,26.13
2023-05-25T23:15:45.564Z,32.95
2023-05-25T23:18:12.260Z,24.10
2023-05-25T23:20:38.789Z,28.25
2023-05-25T23:23:05.345Z,25.00
2023-05-25T23:25:31.827Z,22.85
2023-05-25T23:27:58.256Z,29.65
2023-05-25T23:30:24.678Z,27.15
2023-05-25T23:32:51.610Z,27.20
2023-05-25T23:35:18.067Z,23.60
2023-05-25T23:37:44.564Z,30.17
2023-05-25T23:40:12.009Z,27.15
2023-05-25T23:42:39.871Z,32.55
2023-05-25T23:45:08.180Z,27.70
2023-05-25T23:47:34.843Z,30.60
2023-05-25T23:50:01.505Z,24.38
2023-05-25T23:52:28.056Z,22.25
2023-05-25T23:54:54.456Z,20.52
2023-05-25T23:57:20.879Z,30.50
2023-05-25T23:59:47.298Z,22.92
